sensor_id;sensor_type;location;lat;lon;timestamp;P1;durP1;ratioP1;P2;durP2;ratioP2
47599;SDS011;33323;52.124;6.018;2022-07-06T00:02:03;3.58;;;1.45;;
47599;SDS011;33323;52.124;6.018;2022-07-06T00:04:30;4.15;;;1.10;;
47599;SDS011;33323;52.124;6.018;2022-07-06T00:06:58;5.97;;;1.50;;
47599;SDS011;33323;52.124;6.018;2022-07-06T00:09:25;3.95;;;1.13;;
47599;SDS011;33323;52.124;6.018;2022-07-06T00:11:52;5.93;;;1.42;;
47599;SDS011;33323;52.124;6.018;2022-07-06T00:14:19;6.60;;;1.20;;
47599;SDS011;33323;52.124;6.018;2022-07-06T00:16:46;8.98;;;2.03;;
47599;SDS011;33323;52.124;6.018;2022-07-06T00:19:13;6.78;;;1.63;;
47599;SDS011;33323;52.124;6.018;2022-07-06T00:21:40;6.97;;;1.42;;
47599;SDS011;33323;52.124;6.018;2022-07-06T00:24:07;5.10;;;1.23;;
47599;SDS011;33323;52.124;6.018;2022-07-06T00:26:35;3.67;;;1.60;;
47599;SDS011;33323;52.124;6.018;2022-07-06T00:29:02;2.35;;;1.00;;
47599;SDS011;33323;52.124;6.018;2022-07-06T00:31:29;4.28;;;1.40;;
47599;SDS011;33323;52.124;6.018;2022-07-06T00:33:57;6.88;;;1.33;;
47599;SDS011;33323;52.124;6.018;2022-07-06T00:36:23;3.42;;;1.23;;
47599;SDS011;33323;52.124;6.018;2022-07-06T00:38:54;3.80;;;1.42;;
47599;SDS011;33323;52.124;6.018;2022-07-06T00:41:21;3.58;;;1.20;;
47599;SDS011;33323;52.124;6.018;2022-07-06T00:43:57;1.88;;;0.95;;
47599;SDS011;33323;52.124;6.018;2022-07-06T00:46:28;2.35;;;1.08;;
47599;SDS011;33323;52.124;6.018;2022-07-06T00:49:00;3.55;;;1.20;;
47599;SDS011;33323;52.124;6.018;2022-07-06T00:51:28;4.22;;;0.93;;
47599;SDS011;33323;52.124;6.018;2022-07-06T00:53:59;3.50;;;1.40;;
47599;SDS011;33323;52.124;6.018;2022-07-06T00:56:30;4.68;;;1.95;;
47599;SDS011;33323;52.124;6.018;2022-07-06T00:59:02;3.90;;;1.33;;
47599;SDS011;33323;52.124;6.018;2022-07-06T01:01:29;4.93;;;1.15;;
47599;SDS011;33323;52.124;6.018;2022-07-06T01:03:56;5.85;;;1.00;;
47599;SDS011;33323;52.124;6.018;2022-07-06T01:06:23;2.15;;;0.90;;
47599;SDS011;33323;52.124;6.018;2022-07-06T01:08:51;6.20;;;1.20;;
47599;SDS011;33323;52.124;6.018;2022-07-06T01:11:20;3.22;;;1.30;;
47599;SDS011;33323;52.124;6.018;2022-07-06T01:13:48;3.85;;;1.05;;
47599;SDS011;33323;52.124;6.018;2022-07-06T01:16:17;3.53;;;1.05;;
47599;SDS011;33323;52.124;6.018;2022-07-06T01:18:45;2.22;;;0.75;;
47599;SDS011;33323;52.124;6.018;2022-07-06T01:21:12;3.42;;;1.02;;
47599;SDS011;33323;52.124;6.018;2022-07-06T01:23:41;1.17;;;0.68;;
47599;SDS011;33323;52.124;6.018;2022-07-06T01:26:12;3.22;;;2.35;;
47599;SDS011;33323;52.124;6.018;2022-07-06T01:28:42;2.83;;;1.17;;
47599;SDS011;33323;52.124;6.018;2022-07-06T01:33:46;2.78;;;1.05;;
47599;SDS011;33323;52.124;6.018;2022-07-06T01:36:15;3.63;;;1.05;;
47599;SDS011;33323;52.124;6.018;2022-07-06T01:38:47;2.53;;;0.88;;
47599;SDS011;33323;52.124;6.018;2022-07-06T01:41:23;2.33;;;1.27;;
47599;SDS011;33323;52.124;6.018;2022-07-06T01:43:50;4.15;;;1.15;;
47599;SDS011;33323;52.124;6.018;2022-07-06T01:46:18;6.20;;;1.08;;
47599;SDS011;33323;52.124;6.018;2022-07-06T01:48:47;2.88;;;1.17;;
47599;SDS011;33323;52.124;6.018;2022-07-06T01:51:14;2.72;;;1.30;;
47599;SDS011;33323;52.124;6.018;2022-07-06T01:53:43;6.25;;;1.10;;
47599;SDS011;33323;52.124;6.018;2022-07-06T01:56:11;4.22;;;1.40;;
47599;SDS011;33323;52.124;6.018;2022-07-06T01:58:39;7.32;;;1.85;;
47599;SDS011;33323;52.124;6.018;2022-07-06T02:01:12;2.97;;;1.13;;
47599;SDS011;33323;52.124;6.018;2022-07-06T02:03:42;6.05;;;1.92;;
47599;SDS011;33323;52.124;6.018;2022-07-06T02:06:10;4.40;;;1.38;;
47599;SDS011;33323;52.124;6.018;2022-07-06T02:08:45;3.40;;;1.48;;
47599;SDS011;33323;52.124;6.018;2022-07-06T02:11:12;4.60;;;1.50;;
47599;SDS011;33323;52.124;6.018;2022-07-06T02:13:42;7.18;;;2.25;;
47599;SDS011;33323;52.124;6.018;2022-07-06T02:16:10;6.05;;;1.83;;
47599;SDS011;33323;52.124;6.018;2022-07-06T02:18:37;6.43;;;2.25;;
47599;SDS011;33323;52.124;6.018;2022-07-06T02:21:04;5.25;;;1.67;;
47599;SDS011;33323;52.124;6.018;2022-07-06T02:23:32;2.90;;;1.60;;
47599;SDS011;33323;52.124;6.018;2022-07-06T02:25:59;4.00;;;1.92;;
47599;SDS011;33323;52.124;6.018;2022-07-06T02:28:26;7.22;;;2.00;;
47599;SDS011;33323;52.124;6.018;2022-07-06T02:30:54;3.85;;;2.35;;
47599;SDS011;33323;52.124;6.018;2022-07-06T02:33:22;2.47;;;1.80;;
47599;SDS011;33323;52.124;6.018;2022-07-06T02:35:49;5.32;;;1.90;;
47599;SDS011;33323;52.124;6.018;2022-07-06T02:38:16;3.47;;;1.88;;
47599;SDS011;33323;52.124;6.018;2022-07-06T02:40:43;7.47;;;2.60;;
47599;SDS011;33323;52.124;6.018;2022-07-06T02:43:11;5.43;;;2.35;;
47599;SDS011;33323;52.124;6.018;2022-07-06T02:45:39;3.38;;;1.80;;
47599;SDS011;33323;52.124;6.018;2022-07-06T02:48:09;5.88;;;1.73;;
47599;SDS011;33323;52.124;6.018;2022-07-06T02:50:36;5.70;;;1.30;;
47599;SDS011;33323;52.124;6.018;2022-07-06T02:53:03;6.47;;;1.75;;
47599;SDS011;33323;52.124;6.018;2022-07-06T02:55:31;3.00;;;1.48;;
47599;SDS011;33323;52.124;6.018;2022-07-06T02:57:59;3.58;;;1.55;;
47599;SDS011;33323;52.124;6.018;2022-07-06T03:00:26;6.07;;;2.10;;
47599;SDS011;33323;52.124;6.018;2022-07-06T03:02:54;4.00;;;1.70;;
47599;SDS011;33323;52.124;6.018;2022-07-06T03:05:22;7.43;;;3.05;;
47599;SDS011;33323;52.124;6.018;2022-07-06T03:07:49;5.72;;;3.10;;
47599;SDS011;33323;52.124;6.018;2022-07-06T03:10:17;2.92;;;1.83;;
47599;SDS011;33323;52.124;6.018;2022-07-06T03:12:44;5.90;;;1.90;;
47599;SDS011;33323;52.124;6.018;2022-07-06T03:15:11;4.20;;;2.08;;
47599;SDS011;33323;52.124;6.018;2022-07-06T03:17:42;2.85;;;1.77;;
47599;SDS011;33323;52.124;6.018;2022-07-06T03:20:11;3.33;;;1.55;;
47599;SDS011;33323;52.124;6.018;2022-07-06T03:22:39;1.83;;;1.52;;
47599;SDS011;33323;52.124;6.018;2022-07-06T03:25:07;4.40;;;1.80;;
47599;SDS011;33323;52.124;6.018;2022-07-06T03:27:37;3.13;;;1.60;;
47599;SDS011;33323;52.124;6.018;2022-07-06T03:30:04;4.38;;;1.92;;
47599;SDS011;33323;52.124;6.018;2022-07-06T03:32:41;4.00;;;2.15;;
47599;SDS011;33323;52.124;6.018;2022-07-06T03:35:09;3.53;;;1.67;;
47599;SDS011;33323;52.124;6.018;2022-07-06T03:37:36;4.78;;;1.60;;
47599;SDS011;33323;52.124;6.018;2022-07-06T03:40:04;7.38;;;1.75;;
47599;SDS011;33323;52.124;6.018;2022-07-06T03:42:32;6.03;;;1.58;;
47599;SDS011;33323;52.124;6.018;2022-07-06T03:44:59;6.18;;;1.77;;
47599;SDS011;33323;52.124;6.018;2022-07-06T03:47:26;8.20;;;1.98;;
47599;SDS011;33323;52.124;6.018;2022-07-06T03:49:56;3.47;;;1.60;;
47599;SDS011;33323;52.124;6.018;2022-07-06T03:52:24;4.25;;;1.67;;
47599;SDS011;33323;52.124;6.018;2022-07-06T03:54:55;4.25;;;1.90;;
47599;SDS011;33323;52.124;6.018;2022-07-06T03:57:27;2.33;;;1.30;;
47599;SDS011;33323;52.124;6.018;2022-07-06T03:59:56;2.15;;;1.73;;
47599;SDS011;33323;52.124;6.018;2022-07-06T04:02:24;4.47;;;1.23;;
47599;SDS011;33323;52.124;6.018;2022-07-06T04:04:52;4.13;;;1.65;;
47599;SDS011;33323;52.124;6.018;2022-07-06T04:07:20;4.63;;;2.15;;
47599;SDS011;33323;52.124;6.018;2022-07-06T04:09:47;5.07;;;1.65;;
47599;SDS011;33323;52.124;6.018;2022-07-06T04:12:14;7.35;;;1.38;;
47599;SDS011;33323;52.124;6.018;2022-07-06T04:14:42;5.18;;;1.40;;
47599;SDS011;33323;52.124;6.018;2022-07-06T04:17:10;2.17;;;1.52;;
47599;SDS011;33323;52.124;6.018;2022-07-06T04:19:56;6.53;;;1.10;;
47599;SDS011;33323;52.124;6.018;2022-07-06T04:22:23;4.25;;;1.17;;
47599;SDS011;33323;52.124;6.018;2022-07-06T04:24:50;3.85;;;0.93;;
47599;SDS011;33323;52.124;6.018;2022-07-06T04:27:17;4.00;;;1.95;;
47599;SDS011;33323;52.124;6.018;2022-07-06T04:29:44;4.75;;;1.00;;
47599;SDS011;33323;52.124;6.018;2022-07-06T04:32:11;2.70;;;1.42;;
47599;SDS011;33323;52.124;6.018;2022-07-06T04:34:38;6.68;;;1.70;;
47599;SDS011;33323;52.124;6.018;2022-07-06T04:37:06;3.88;;;1.33;;
47599;SDS011;33323;52.124;6.018;2022-07-06T04:39:33;3.75;;;0.90;;
47599;SDS011;33323;52.124;6.018;2022-07-06T04:42:00;3.38;;;1.08;;
47599;SDS011;33323;52.124;6.018;2022-07-06T04:44:28;3.85;;;1.00;;
47599;SDS011;33323;52.124;6.018;2022-07-06T04:46:55;6.63;;;1.08;;
47599;SDS011;33323;52.124;6.018;2022-07-06T04:49:22;2.40;;;1.40;;
47599;SDS011;33323;52.124;6.018;2022-07-06T04:51:49;2.45;;;1.15;;
47599;SDS011;33323;52.124;6.018;2022-07-06T04:54:17;4.18;;;1.10;;
47599;SDS011;33323;52.124;6.018;2022-07-06T04:56:44;3.53;;;1.00;;
47599;SDS011;33323;52.124;6.018;2022-07-06T04:59:13;2.20;;;1.20;;
47599;SDS011;33323;52.124;6.018;2022-07-06T05:01:41;3.45;;;1.40;;
47599;SDS011;33323;52.124;6.018;2022-07-06T05:04:09;1.50;;;1.05;;
47599;SDS011;33323;52.124;6.018;2022-07-06T05:06:37;7.80;;;2.03;;
47599;SDS011;33323;52.124;6.018;2022-07-06T05:09:04;4.63;;;0.80;;
47599;SDS011;33323;52.124;6.018;2022-07-06T05:11:31;6.60;;;1.27;;
47599;SDS011;33323;52.124;6.018;2022-07-06T05:13:58;1.55;;;0.85;;
47599;SDS011;33323;52.124;6.018;2022-07-06T05:16:28;3.20;;;1.02;;
47599;SDS011;33323;52.124;6.018;2022-07-06T05:18:55;1.88;;;1.00;;
47599;SDS011;33323;52.124;6.018;2022-07-06T05:21:22;4.43;;;0.98;;
47599;SDS011;33323;52.124;6.018;2022-07-06T05:23:50;2.92;;;0.95;;
47599;SDS011;33323;52.124;6.018;2022-07-06T05:26:17;3.55;;;1.40;;
47599;SDS011;33323;52.124;6.018;2022-07-06T05:28:45;3.22;;;1.13;;
47599;SDS011;33323;52.124;6.018;2022-07-06T05:31:16;3.20;;;0.73;;
47599;SDS011;33323;52.124;6.018;2022-07-06T05:33:43;3.38;;;1.00;;
47599;SDS011;33323;52.124;6.018;2022-07-06T05:36:10;3.17;;;1.25;;
47599;SDS011;33323;52.124;6.018;2022-07-06T05:38:37;6.53;;;1.33;;
47599;SDS011;33323;52.124;6.018;2022-07-06T05:41:06;3.42;;;0.90;;
47599;SDS011;33323;52.124;6.018;2022-07-06T05:43:36;0.98;;;0.63;;
47599;SDS011;33323;52.124;6.018;2022-07-06T05:46:04;4.53;;;0.90;;
47599;SDS011;33323;52.124;6.018;2022-07-06T05:48:33;2.45;;;1.10;;
47599;SDS011;33323;52.124;6.018;2022-07-06T05:51:20;3.03;;;0.95;;
47599;SDS011;33323;52.124;6.018;2022-07-06T05:53:47;2.67;;;0.68;;
47599;SDS011;33323;52.124;6.018;2022-07-06T05:56:14;5.78;;;1.35;;
47599;SDS011;33323;52.124;6.018;2022-07-06T05:58:42;4.00;;;0.95;;
47599;SDS011;33323;52.124;6.018;2022-07-06T06:01:09;6.05;;;2.05;;
47599;SDS011;33323;52.124;6.018;2022-07-06T06:03:37;3.55;;;1.23;;
47599;SDS011;33323;52.124;6.018;2022-07-06T06:06:05;2.95;;;1.23;;
47599;SDS011;33323;52.124;6.018;2022-07-06T06:08:33;2.53;;;0.80;;
47599;SDS011;33323;52.124;6.018;2022-07-06T06:11:00;4.13;;;1.02;;
47599;SDS011;33323;52.124;6.018;2022-07-06T06:13:34;2.97;;;0.88;;
47599;SDS011;33323;52.124;6.018;2022-07-06T06:16:01;1.92;;;0.73;;
47599;SDS011;33323;52.124;6.018;2022-07-06T06:18:28;1.33;;;0.52;;
47599;SDS011;33323;52.124;6.018;2022-07-06T06:20:56;1.90;;;0.80;;
47599;SDS011;33323;52.124;6.018;2022-07-06T06:23:23;2.78;;;0.90;;
47599;SDS011;33323;52.124;6.018;2022-07-06T06:25:50;8.35;;;1.13;;
47599;SDS011;33323;52.124;6.018;2022-07-06T06:28:17;2.97;;;0.85;;
47599;SDS011;33323;52.124;6.018;2022-07-06T06:30:43;1.40;;;0.70;;
47599;SDS011;33323;52.124;6.018;2022-07-06T06:35:44;4.15;;;0.80;;
47599;SDS011;33323;52.124;6.018;2022-07-06T06:38:14;9.88;;;1.33;;
47599;SDS011;33323;52.124;6.018;2022-07-06T06:40:42;4.45;;;0.60;;
47599;SDS011;33323;52.124;6.018;2022-07-06T06:43:09;6.97;;;0.50;;
47599;SDS011;33323;52.124;6.018;2022-07-06T06:45:44;3.00;;;0.50;;
47599;SDS011;33323;52.124;6.018;2022-07-06T06:48:12;3.72;;;0.50;;
47599;SDS011;33323;52.124;6.018;2022-07-06T06:50:48;2.55;;;0.50;;
47599;SDS011;33323;52.124;6.018;2022-07-06T06:53:16;3.10;;;1.05;;
47599;SDS011;33323;52.124;6.018;2022-07-06T06:55:43;3.75;;;0.68;;
47599;SDS011;33323;52.124;6.018;2022-07-06T06:58:10;4.07;;;0.38;;
47599;SDS011;33323;52.124;6.018;2022-07-06T07:00:37;3.03;;;0.60;;
47599;SDS011;33323;52.124;6.018;2022-07-06T07:03:04;1.98;;;0.30;;
47599;SDS011;33323;52.124;6.018;2022-07-06T07:05:31;3.35;;;0.73;;
47599;SDS011;33323;52.124;6.018;2022-07-06T07:07:58;1.77;;;0.22;;
47599;SDS011;33323;52.124;6.018;2022-07-06T07:10:30;10.15;;;2.75;;
47599;SDS011;33323;52.124;6.018;2022-07-06T07:12:58;2.80;;;0.40;;
47599;SDS011;33323;52.124;6.018;2022-07-06T07:15:25;2.78;;;0.45;;
47599;SDS011;33323;52.124;6.018;2022-07-06T07:17:52;6.97;;;1.00;;
47599;SDS011;33323;52.124;6.018;2022-07-06T07:20:19;1.25;;;0.40;;
47599;SDS011;33323;52.124;6.018;2022-07-06T07:22:46;4.38;;;0.50;;
47599;SDS011;33323;52.124;6.018;2022-07-06T07:25:13;1.50;;;0.43;;
47599;SDS011;33323;52.124;6.018;2022-07-06T07:27:40;4.75;;;0.50;;
47599;SDS011;33323;52.124;6.018;2022-07-06T07:30:08;2.70;;;0.40;;
47599;SDS011;33323;52.124;6.018;2022-07-06T07:32:35;2.28;;;0.20;;
47599;SDS011;33323;52.124;6.018;2022-07-06T07:35:03;1.58;;;0.20;;
47599;SDS011;33323;52.124;6.018;2022-07-06T07:37:30;2.22;;;0.50;;
47599;SDS011;33323;52.124;6.018;2022-07-06T07:39:57;2.92;;;0.30;;
47599;SDS011;33323;52.124;6.018;2022-07-06T07:42:25;0.32;;;0.15;;
47599;SDS011;33323;52.124;6.018;2022-07-06T07:44:52;1.08;;;0.40;;
47599;SDS011;33323;52.124;6.018;2022-07-06T07:47:19;2.78;;;0.20;;
47599;SDS011;33323;52.124;6.018;2022-07-06T07:49:46;3.70;;;1.75;;
47599;SDS011;33323;52.124;6.018;2022-07-06T07:52:13;3.03;;;0.40;;
47599;SDS011;33323;52.124;6.018;2022-07-06T07:54:41;3.13;;;0.25;;
47599;SDS011;33323;52.124;6.018;2022-07-06T07:57:16;1.92;;;0.30;;
47599;SDS011;33323;52.124;6.018;2022-07-06T07:59:43;0.70;;;0.20;;
47599;SDS011;33323;52.124;6.018;2022-07-06T08:02:10;2.35;;;0.20;;
47599;SDS011;33323;52.124;6.018;2022-07-06T08:04:37;3.42;;;0.15;;
47599;SDS011;33323;52.124;6.018;2022-07-06T08:07:04;1.65;;;0.40;;
47599;SDS011;33323;52.124;6.018;2022-07-06T08:09:32;0.95;;;0.22;;
47599;SDS011;33323;52.124;6.018;2022-07-06T08:12:00;3.03;;;0.30;;
47599;SDS011;33323;52.124;6.018;2022-07-06T08:14:27;3.50;;;0.50;;
47599;SDS011;33323;52.124;6.018;2022-07-06T08:16:54;1.58;;;0.20;;
47599;SDS011;33323;52.124;6.018;2022-07-06T08:19:21;2.67;;;0.90;;
47599;SDS011;33323;52.124;6.018;2022-07-06T08:21:48;0.77;;;0.22;;
47599;SDS011;33323;52.124;6.018;2022-07-06T08:24:15;2.45;;;0.13;;
47599;SDS011;33323;52.124;6.018;2022-07-06T08:26:42;1.70;;;0.10;;
47599;SDS011;33323;52.124;6.018;2022-07-06T08:29:09;1.05;;;0.10;;
47599;SDS011;33323;52.124;6.018;2022-07-06T08:31:36;0.25;;;0.10;;
47599;SDS011;33323;52.124;6.018;2022-07-06T08:34:22;2.42;;;0.28;;
47599;SDS011;33323;52.124;6.018;2022-07-06T08:36:53;3.10;;;0.28;;
47599;SDS011;33323;52.124;6.018;2022-07-06T08:39:20;1.50;;;0.30;;
47599;SDS011;33323;52.124;6.018;2022-07-06T08:41:47;0.68;;;0.30;;
47599;SDS011;33323;52.124;6.018;2022-07-06T08:44:15;2.28;;;0.70;;
47599;SDS011;33323;52.124;6.018;2022-07-06T08:46:43;2.60;;;0.40;;
47599;SDS011;33323;52.124;6.018;2022-07-06T08:49:17;2.95;;;0.55;;
47599;SDS011;33323;52.124;6.018;2022-07-06T08:51:45;1.55;;;0.20;;
47599;SDS011;33323;52.124;6.018;2022-07-06T08:54:13;2.25;;;0.20;;
47599;SDS011;33323;52.124;6.018;2022-07-06T08:56:41;0.80;;;0.20;;
47599;SDS011;33323;52.124;6.018;2022-07-06T08:59:14;2.78;;;0.20;;
47599;SDS011;33323;52.124;6.018;2022-07-06T09:01:43;2.00;;;0.20;;
47599;SDS011;33323;52.124;6.018;2022-07-06T09:04:15;0.55;;;0.20;;
47599;SDS011;33323;52.124;6.018;2022-07-06T09:06:45;0.55;;;0.20;;
47599;SDS011;33323;52.124;6.018;2022-07-06T09:09:18;2.45;;;0.20;;
47599;SDS011;33323;52.124;6.018;2022-07-06T09:11:51;2.45;;;0.20;;
47599;SDS011;33323;52.124;6.018;2022-07-06T09:14:18;3.25;;;0.20;;
47599;SDS011;33323;52.124;6.018;2022-07-06T09:16:46;1.10;;;0.20;;
47599;SDS011;33323;52.124;6.018;2022-07-06T09:19:18;1.55;;;0.20;;
47599;SDS011;33323;52.124;6.018;2022-07-06T09:21:45;0.68;;;0.10;;
47599;SDS011;33323;52.124;6.018;2022-07-06T09:24:12;1.10;;;0.20;;
47599;SDS011;33323;52.124;6.018;2022-07-06T09:26:39;0.55;;;0.10;;
47599;SDS011;33323;52.124;6.018;2022-07-06T09:29:08;1.15;;;0.20;;
47599;SDS011;33323;52.124;6.018;2022-07-06T09:31:37;3.92;;;0.38;;
47599;SDS011;33323;52.124;6.018;2022-07-06T09:34:06;0.57;;;0.10;;
47599;SDS011;33323;52.124;6.018;2022-07-06T09:36:40;0.88;;;0.15;;
47599;SDS011;33323;52.124;6.018;2022-07-06T09:39:25;1.05;;;0.22;;
47599;SDS011;33323;52.124;6.018;2022-07-06T09:41:59;2.42;;;1.40;;
47599;SDS011;33323;52.124;6.018;2022-07-06T09:44:30;2.00;;;0.20;;
47599;SDS011;33323;52.124;6.018;2022-07-06T09:47:00;0.85;;;0.20;;
47599;SDS011;33323;52.124;6.018;2022-07-06T09:49:30;0.20;;;0.10;;
47599;SDS011;33323;52.124;6.018;2022-07-06T09:51:58;0.30;;;0.10;;
47599;SDS011;33323;52.124;6.018;2022-07-06T09:54:28;2.85;;;0.20;;
47599;SDS011;33323;52.124;6.018;2022-07-06T09:56:56;1.98;;;0.15;;
47599;SDS011;33323;52.124;6.018;2022-07-06T09:59:30;0.55;;;0.20;;
47599;SDS011;33323;52.124;6.018;2022-07-06T10:02:03;0.20;;;0.10;;
47599;SDS011;33323;52.124;6.018;2022-07-06T10:04:33;5.05;;;0.20;;
47599;SDS011;33323;52.124;6.018;2022-07-06T10:07:01;1.08;;;0.28;;
47599;SDS011;33323;52.124;6.018;2022-07-06T10:09:28;1.67;;;0.20;;
47599;SDS011;33323;52.124;6.018;2022-07-06T10:11:59;1.40;;;0.15;;
47599;SDS011;33323;52.124;6.018;2022-07-06T10:14:32;1.00;;;0.10;;
47599;SDS011;33323;52.124;6.018;2022-07-06T10:17:00;2.60;;;0.30;;
47599;SDS011;33323;52.124;6.018;2022-07-06T10:19:30;0.43;;;0.10;;
47599;SDS011;33323;52.124;6.018;2022-07-06T10:21:59;1.30;;;0.20;;
47599;SDS011;33323;52.124;6.018;2022-07-06T10:24:29;0.45;;;0.13;;
47599;SDS011;33323;52.124;6.018;2022-07-06T10:27:00;0.45;;;0.20;;
47599;SDS011;33323;52.124;6.018;2022-07-06T10:29:28;7.78;;;0.52;;
47599;SDS011;33323;52.124;6.018;2022-07-06T10:31:58;2.28;;;0.35;;
47599;SDS011;33323;52.124;6.018;2022-07-06T10:34:26;3.00;;;0.28;;
47599;SDS011;33323;52.124;6.018;2022-07-06T10:36:53;1.92;;;0.30;;
47599;SDS011;33323;52.124;6.018;2022-07-06T10:39:33;0.60;;;0.20;;
47599;SDS011;33323;52.124;6.018;2022-07-06T10:45:10;2.25;;;0.40;;
47599;SDS011;33323;52.124;6.018;2022-07-06T10:47:43;2.15;;;0.30;;
47599;SDS011;33323;52.124;6.018;2022-07-06T10:50:11;4.32;;;0.65;;
47599;SDS011;33323;52.124;6.018;2022-07-06T10:52:52;0.57;;;0.20;;
47599;SDS011;33323;52.124;6.018;2022-07-06T10:55:27;1.35;;;0.10;;
47599;SDS011;33323;52.124;6.018;2022-07-06T10:57:56;1.45;;;0.20;;
47599;SDS011;33323;52.124;6.018;2022-07-06T11:00:23;2.22;;;0.10;;
47599;SDS011;33323;52.124;6.018;2022-07-06T11:02:50;2.38;;;0.15;;
47599;SDS011;33323;52.124;6.018;2022-07-06T11:14:05;0.60;;;0.10;;
47599;SDS011;33323;52.124;6.018;2022-07-06T11:19:16;2.15;;;0.20;;
47599;SDS011;33323;52.124;6.018;2022-07-06T11:21:50;4.38;;;1.25;;
47599;SDS011;33323;52.124;6.018;2022-07-06T11:24:28;1.02;;;0.20;;
47599;SDS011;33323;52.124;6.018;2022-07-06T11:26:57;2.70;;;0.15;;
47599;SDS011;33323;52.124;6.018;2022-07-06T11:29:26;1.45;;;0.32;;
47599;SDS011;33323;52.124;6.018;2022-07-06T11:31:56;3.17;;;0.50;;
47599;SDS011;33323;52.124;6.018;2022-07-06T11:34:27;0.55;;;0.25;;
47599;SDS011;33323;52.124;6.018;2022-07-06T11:37:01;0.80;;;0.15;;
47599;SDS011;33323;52.124;6.018;2022-07-06T11:39:37;1.88;;;0.20;;
47599;SDS011;33323;52.124;6.018;2022-07-06T11:42:09;1.70;;;0.30;;
47599;SDS011;33323;52.124;6.018;2022-07-06T11:44:41;1.20;;;0.30;;
47599;SDS011;33323;52.124;6.018;2022-07-06T11:47:09;2.25;;;0.20;;
47599;SDS011;33323;52.124;6.018;2022-07-06T11:49:38;1.42;;;0.30;;
47599;SDS011;33323;52.124;6.018;2022-07-06T11:52:08;4.13;;;0.55;;
47599;SDS011;33323;52.124;6.018;2022-07-06T11:54:37;1.30;;;0.20;;
47599;SDS011;33323;52.124;6.018;2022-07-06T11:57:09;0.60;;;0.30;;
47599;SDS011;33323;52.124;6.018;2022-07-06T11:59:38;4.53;;;0.60;;
47599;SDS011;33323;52.124;6.018;2022-07-06T12:02:08;1.05;;;0.22;;
47599;SDS011;33323;52.124;6.018;2022-07-06T12:04:41;2.55;;;0.30;;
47599;SDS011;33323;52.124;6.018;2022-07-06T12:07:12;5.30;;;0.25;;
47599;SDS011;33323;52.124;6.018;2022-07-06T12:09:43;2.05;;;0.30;;
47599;SDS011;33323;52.124;6.018;2022-07-06T12:12:13;0.75;;;0.13;;
47599;SDS011;33323;52.124;6.018;2022-07-06T12:14:42;0.15;;;0.15;;
47599;SDS011;33323;52.124;6.018;2022-07-06T12:17:09;0.77;;;0.30;;
47599;SDS011;33323;52.124;6.018;2022-07-06T12:19:40;1.65;;;0.30;;
47599;SDS011;33323;52.124;6.018;2022-07-06T12:22:08;1.08;;;0.13;;
47599;SDS011;33323;52.124;6.018;2022-07-06T12:24:36;1.27;;;0.20;;
47599;SDS011;33323;52.124;6.018;2022-07-06T12:27:16;0.77;;;0.30;;
47599;SDS011;33323;52.124;6.018;2022-07-06T12:29:45;0.85;;;0.10;;
47599;SDS011;33323;52.124;6.018;2022-07-06T12:32:18;0.77;;;0.22;;
47599;SDS011;33323;52.124;6.018;2022-07-06T12:35:01;1.33;;;0.20;;
47599;SDS011;33323;52.124;6.018;2022-07-06T12:37:34;2.45;;;0.20;;
47599;SDS011;33323;52.124;6.018;2022-07-06T12:40:02;2.92;;;0.22;;
47599;SDS011;33323;52.124;6.018;2022-07-06T12:42:46;1.90;;;0.30;;
47599;SDS011;33323;52.124;6.018;2022-07-06T12:45:14;1.52;;;0.30;;
47599;SDS011;33323;52.124;6.018;2022-07-06T12:47:48;2.97;;;0.73;;
47599;SDS011;33323;52.124;6.018;2022-07-06T12:50:34;2.38;;;0.30;;
47599;SDS011;33323;52.124;6.018;2022-07-06T12:53:04;0.98;;;0.55;;
47599;SDS011;33323;52.124;6.018;2022-07-06T12:55:32;3.22;;;0.40;;
47599;SDS011;33323;52.124;6.018;2022-07-06T12:57:59;1.02;;;0.20;;
47599;SDS011;33323;52.124;6.018;2022-07-06T13:00:26;3.95;;;0.70;;
47599;SDS011;33323;52.124;6.018;2022-07-06T13:02:53;0.95;;;0.50;;
47599;SDS011;33323;52.124;6.018;2022-07-06T13:05:37;4.00;;;0.50;;
47599;SDS011;33323;52.124;6.018;2022-07-06T13:08:05;4.90;;;0.80;;
47599;SDS011;33323;52.124;6.018;2022-07-06T13:10:32;0.73;;;0.40;;
47599;SDS011;33323;52.124;6.018;2022-07-06T13:13:02;1.50;;;0.32;;
47599;SDS011;33323;52.124;6.018;2022-07-06T13:15:29;2.22;;;0.40;;
47599;SDS011;33323;52.124;6.018;2022-07-06T13:17:56;3.33;;;0.30;;
47599;SDS011;33323;52.124;6.018;2022-07-06T13:20:23;3.00;;;0.40;;
47599;SDS011;33323;52.124;6.018;2022-07-06T13:22:50;0.85;;;0.25;;
47599;SDS011;33323;52.124;6.018;2022-07-06T13:25:17;1.45;;;0.20;;
47599;SDS011;33323;52.124;6.018;2022-07-06T13:27:44;1.73;;;0.40;;
47599;SDS011;33323;52.124;6.018;2022-07-06T13:30:12;1.35;;;0.30;;
47599;SDS011;33323;52.124;6.018;2022-07-06T13:32:39;2.10;;;0.20;;
47599;SDS011;33323;52.124;6.018;2022-07-06T13:35:06;0.85;;;0.30;;
47599;SDS011;33323;52.124;6.018;2022-07-06T13:37:34;1.50;;;0.40;;
47599;SDS011;33323;52.124;6.018;2022-07-06T13:40:01;1.45;;;0.50;;
47599;SDS011;33323;52.124;6.018;2022-07-06T13:42:29;0.43;;;0.20;;
47599;SDS011;33323;52.124;6.018;2022-07-06T13:44:56;3.80;;;0.40;;
47599;SDS011;33323;52.124;6.018;2022-07-06T13:47:22;1.00;;;0.30;;
47599;SDS011;33323;52.124;6.018;2022-07-06T13:49:50;3.35;;;1.27;;
47599;SDS011;33323;52.124;6.018;2022-07-06T13:52:17;2.90;;;0.30;;
47599;SDS011;33323;52.124;6.018;2022-07-06T13:54:44;0.45;;;0.10;;
47599;SDS011;33323;52.124;6.018;2022-07-06T13:57:11;2.55;;;0.40;;
47599;SDS011;33323;52.124;6.018;2022-07-06T13:59:38;1.75;;;0.57;;
47599;SDS011;33323;52.124;6.018;2022-07-06T14:02:06;1.75;;;0.30;;
47599;SDS011;33323;52.124;6.018;2022-07-06T14:04:33;1.58;;;0.38;;
47599;SDS011;33323;52.124;6.018;2022-07-06T14:07:00;0.40;;;0.20;;
47599;SDS011;33323;52.124;6.018;2022-07-06T14:09:28;0.32;;;0.20;;
47599;SDS011;33323;52.124;6.018;2022-07-06T14:11:56;7.53;;;0.32;;
47599;SDS011;33323;52.124;6.018;2022-07-06T14:14:23;1.02;;;0.25;;
47599;SDS011;33323;52.124;6.018;2022-07-06T14:16:49;1.48;;;0.30;;
47599;SDS011;33323;52.124;6.018;2022-07-06T14:19:17;0.70;;;0.20;;
47599;SDS011;33323;52.124;6.018;2022-07-06T14:21:47;1.23;;;0.85;;
47599;SDS011;33323;52.124;6.018;2022-07-06T14:24:15;0.80;;;0.20;;
47599;SDS011;33323;52.124;6.018;2022-07-06T14:26:43;2.20;;;0.40;;
47599;SDS011;33323;52.124;6.018;2022-07-06T14:29:10;1.95;;;0.30;;
47599;SDS011;33323;52.124;6.018;2022-07-06T14:31:37;2.15;;;0.43;;
47599;SDS011;33323;52.124;6.018;2022-07-06T14:34:04;1.80;;;0.50;;
47599;SDS011;33323;52.124;6.018;2022-07-06T14:36:31;0.77;;;0.20;;
47599;SDS011;33323;52.124;6.018;2022-07-06T14:38:59;3.97;;;0.50;;
47599;SDS011;33323;52.124;6.018;2022-07-06T14:41:26;1.20;;;0.40;;
47599;SDS011;33323;52.124;6.018;2022-07-06T14:43:53;1.27;;;0.50;;
47599;SDS011;33323;52.124;6.018;2022-07-06T14:46:20;0.45;;;0.40;;
47599;SDS011;33323;52.124;6.018;2022-07-06T14:48:48;2.15;;;0.40;;
47599;SDS011;33323;52.124;6.018;2022-07-06T14:51:15;1.65;;;0.60;;
47599;SDS011;33323;52.124;6.018;2022-07-06T14:53:42;0.85;;;0.20;;
47599;SDS011;33323;52.124;6.018;2022-07-06T14:56:09;2.50;;;0.50;;
47599;SDS011;33323;52.124;6.018;2022-07-06T14:58:36;2.40;;;0.28;;
47599;SDS011;33323;52.124;6.018;2022-07-06T15:01:06;1.65;;;0.40;;
47599;SDS011;33323;52.124;6.018;2022-07-06T15:03:33;2.25;;;0.40;;
47599;SDS011;33323;52.124;6.018;2022-07-06T15:06:00;2.30;;;0.60;;
47599;SDS011;33323;52.124;6.018;2022-07-06T15:08:27;3.72;;;0.90;;
47599;SDS011;33323;52.124;6.018;2022-07-06T15:10:54;0.73;;;0.20;;
47599;SDS011;33323;52.124;6.018;2022-07-06T15:13:21;2.60;;;0.80;;
47599;SDS011;33323;52.124;6.018;2022-07-06T15:15:49;3.05;;;0.32;;
47599;SDS011;33323;52.124;6.018;2022-07-06T15:18:24;4.00;;;0.20;;